createdAt,value
2023-02-01T00:01:07.544Z,60.94
2023-02-01T00:03:34.917Z,60.61
2023-02-01T00:06:02.349Z,59.80
2023-02-01T00:08:29.664Z,59.38
2023-02-01T00:11:05.900Z,61.54
2023-02-01T00:13:35.281Z,63.83
2023-02-01T00:16:16.830Z,63.27
2023-02-01T00:18:45.269Z,62.10
2023-02-01T00:21:14.279Z,61.03
2023-02-01T00:23:42.162Z,60.12
2023-02-01T00:26:26.317Z,59.63
2023-02-01T00:28:53.939Z,61.69
2023-02-01T00:31:21.289Z,63.71
2023-02-01T00:33:49.132Z,63.29
2023-02-01T00:36:18.666Z,61.92
2023-02-01T00:38:46.020Z,61.08
2023-02-01T00:41:15.714Z,60.65
2023-02-01T00:43:46.042Z,60.01
2023-02-01T00:46:15.435Z,59.48
2023-02-01T00:48:43.218Z,60.77
2023-02-01T00:51:14.146Z,63.50
2023-02-01T00:53:41.823Z,63.75
2023-02-01T00:56:09.798Z,62.76
2023-02-01T00:58:37.129Z,61.64
2023-02-01T01:01:17.573Z,60.94
2023-02-01T01:03:54.273Z,60.40
2023-02-01T01:06:34.344Z,59.71
2023-02-01T01:09:04.518Z,60.02
2023-02-01T01:11:34.864Z,62.55
2023-02-01T01:14:03.055Z,63.91
2023-02-01T01:16:32.456Z,63.21
2023-02-01T01:19:00.145Z,62.40
2023-02-01T01:21:28.675Z,61.37
2023-02-01T01:23:56.534Z,60.73
2023-02-01T01:26:26.531Z,60.37
2023-02-01T01:28:56.772Z,59.81
2023-02-01T01:31:24.373Z,59.55
2023-02-01T01:33:53.456Z,59.76
2023-02-01T01:36:22.573Z,62.46
2023-02-01T01:38:50.391Z,63.74
2023-02-01T01:41:21.769Z,62.75
2023-02-01T01:43:56.128Z,61.83
2023-02-01T01:46:27.495Z,60.89
2023-02-01T01:49:17.402Z,60.37
2023-02-01T01:51:50.101Z,59.70
2023-02-01T01:54:26.727Z,61.33
2023-02-01T01:57:00.979Z,63.36
2023-02-01T01:59:32.035Z,63.40
2023-02-01T02:01:59.354Z,62.26
2023-02-01T02:04:26.687Z,61.42
2023-02-01T02:07:00.639Z,60.93
2023-02-01T02:09:28.070Z,60.50
2023-02-01T02:11:55.322Z,60.02
2023-02-01T02:14:24.454Z,59.33
2023-02-01T02:17:39.087Z,60.84
2023-02-01T02:20:14.992Z,63.65
2023-02-01T02:23:23.910Z,63.32
2023-02-01T02:26:34.960Z,62.10
2023-02-01T02:29:26.336Z,61.09
2023-02-01T02:31:56.530Z,60.59
2023-02-01T02:34:33.928Z,59.47
2023-02-01T02:37:24.656Z,60.92
2023-02-01T02:40:24.417Z,63.75
2023-02-01T02:43:21.802Z,62.91
2023-02-01T02:46:14.176Z,61.29
2023-02-01T02:49:00.210Z,60.46
2023-02-01T02:52:02.272Z,59.55
2023-02-01T02:54:47.120Z,60.53
2023-02-01T02:57:51.394Z,63.23
2023-02-01T03:00:41.474Z,62.19
2023-02-01T03:03:28.067Z,61.18
2023-02-01T03:05:56.520Z,59.68
2023-02-01T03:08:28.711Z,59.83
2023-02-01T03:11:02.997Z,61.91
2023-02-01T03:13:42.013Z,63.40
2023-02-01T03:16:14.852Z,62.38
2023-02-01T03:18:58.679Z,60.92
2023-02-01T03:21:39.146Z,60.07
2023-02-01T03:24:21.463Z,59.37
2023-02-01T03:26:55.657Z,60.68
2023-02-01T03:29:28.076Z,63.16
2023-02-01T03:31:55.407Z,63.23
2023-02-01T03:34:22.707Z,62.16
2023-02-01T03:36:56.566Z,60.85
2023-02-01T03:39:53.618Z,59.63
2023-02-01T03:42:31.640Z,59.56
2023-02-01T03:45:14.433Z,61.88
2023-02-01T03:47:49.072Z,63.81
2023-02-01T03:50:28.366Z,62.74
2023-02-01T03:53:18.593Z,60.99
2023-02-01T03:55:47.630Z,60.48
2023-02-01T03:58:23.952Z,59.27
2023-02-01T04:00:52.987Z,60.59
2023-02-01T04:03:20.161Z,62.71
2023-02-01T04:05:47.487Z,63.30
2023-02-01T04:08:14.788Z,61.77
2023-02-01T04:10:41.945Z,60.41
2023-02-01T04:13:09.028Z,59.44
2023-02-01T04:15:36.367Z,59.45
2023-02-01T04:18:03.597Z,61.53
2023-02-01T04:20:31.102Z,63.42
2023-02-01T04:22:58.773Z,62.84
2023-02-01T04:25:26.088Z,61.60
2023-02-01T04:27:53.214Z,60.39
2023-02-01T04:30:20.444Z,59.50
2023-02-01T04:32:47.885Z,58.80
2023-02-01T04:35:15.039Z,60.39
2023-02-01T04:37:42.198Z,62.97
2023-02-01T04:40:10.019Z,63.29
2023-02-01T04:42:37.200Z,61.42
2023-02-01T04:45:05.006Z,60.49
2023-02-01T04:47:32.235Z,59.30
2023-02-01T04:49:59.407Z,59.12
2023-02-01T04:52:27.879Z,61.29
2023-02-01T04:54:59.172Z,63.20
2023-02-01T04:57:26.945Z,63.16
2023-02-01T04:59:54.101Z,61.50
2023-02-01T05:02:21.678Z,59.85
2023-02-01T05:04:49.051Z,59.77
2023-02-01T05:07:16.296Z,61.39
2023-02-01T05:09:43.380Z,63.47
2023-02-01T05:12:29.496Z,63.66
2023-02-01T05:14:56.634Z,61.78
2023-02-01T05:17:23.794Z,60.66
2023-02-01T05:19:50.869Z,59.16
2023-02-01T05:22:18.371Z,60.09
2023-02-01T05:24:45.563Z,62.48
2023-02-01T05:27:12.750Z,63.03
2023-02-01T05:29:39.906Z,61.70
2023-02-01T05:32:21.191Z,60.36
2023-02-01T05:34:49.283Z,59.08
2023-02-01T05:37:16.575Z,59.52
2023-02-01T05:39:44.000Z,61.69
2023-02-01T05:42:11.224Z,63.27
2023-02-01T05:44:38.398Z,62.38
2023-02-01T05:47:05.625Z,61.02
2023-02-01T05:49:32.826Z,60.08
2023-02-01T05:52:00.671Z,59.17
2023-02-01T05:54:28.130Z,60.77
2023-02-01T05:56:55.388Z,62.96
2023-02-01T05:59:22.690Z,63.20
2023-02-01T06:01:51.337Z,61.82
2023-02-01T06:04:18.681Z,60.55
2023-02-01T06:06:45.866Z,59.25
2023-02-01T06:09:13.248Z,59.42
2023-02-01T06:11:41.818Z,61.59
2023-02-01T06:14:08.939Z,63.52
2023-02-01T06:16:36.154Z,62.53
2023-02-01T06:19:03.250Z,61.35
2023-02-01T06:21:31.159Z,60.06
2023-02-01T06:23:58.842Z,59.19
2023-02-01T06:26:26.578Z,60.41
2023-02-01T06:28:53.874Z,62.82
2023-02-01T06:31:21.061Z,63.75
2023-02-01T06:33:49.426Z,62.50
2023-02-01T06:36:17.565Z,61.26
2023-02-01T06:38:45.181Z,60.07
2023-02-01T06:41:12.611Z,59.40
2023-02-01T06:43:40.297Z,59.60
2023-02-01T06:46:20.021Z,61.89
2023-02-01T06:48:54.863Z,63.44
2023-02-01T06:51:27.817Z,62.37
2023-02-01T06:53:56.709Z,60.70
2023-02-01T06:56:24.606Z,59.67
2023-02-01T06:58:51.951Z,59.33
2023-02-01T07:01:22.277Z,61.48
2023-02-01T07:03:52.174Z,63.36
2023-02-01T07:06:20.252Z,62.85
2023-02-01T07:08:48.288Z,61.37
2023-02-01T07:11:17.411Z,60.51
2023-02-01T07:13:45.401Z,59.34
2023-02-01T07:16:16.302Z,60.35
2023-02-01T07:18:44.726Z,62.50
2023-02-01T07:21:12.897Z,63.57
2023-02-01T07:23:40.505Z,62.22
2023-02-01T07:26:10.185Z,61.09
2023-02-01T07:28:48.587Z,60.01
2023-02-01T07:31:22.172Z,59.36
2023-02-01T07:33:53.088Z,60.93
2023-02-01T07:36:20.885Z,63.15
2023-02-01T07:38:49.337Z,62.80
2023-02-01T07:41:18.046Z,61.74
2023-02-01T07:43:45.368Z,60.94
2023-02-01T07:46:12.997Z,59.45
2023-02-01T07:48:40.302Z,59.18
2023-02-01T07:51:41.749Z,60.81
2023-02-01T07:54:08.964Z,63.60
2023-02-01T07:56:36.246Z,63.01
2023-02-01T07:59:03.436Z,61.78
2023-02-01T08:01:30.554Z,60.64
2023-02-01T08:04:04.655Z,59.52
2023-02-01T08:06:34.368Z,59.85
2023-02-01T08:09:02.653Z,61.79
2023-02-01T08:11:31.830Z,63.49
2023-02-01T08:13:59.662Z,62.56
2023-02-01T08:16:27.405Z,60.88
2023-02-01T08:18:55.293Z,59.86
2023-02-01T08:21:26.459Z,58.59
2023-02-01T08:23:53.738Z,60.70
2023-02-01T08:26:23.775Z,62.46
2023-02-01T08:28:54.309Z,63.45
2023-02-01T08:31:24.048Z,61.80
2023-02-01T08:33:54.109Z,60.71
2023-02-01T08:36:21.874Z,59.17
2023-02-01T08:38:50.111Z,60.33
2023-02-01T08:41:20.546Z,62.19
2023-02-01T08:43:48.534Z,63.46
2023-02-01T08:46:17.330Z,61.69
2023-02-01T08:48:46.345Z,59.87
2023-02-01T08:51:15.106Z,59.59
2023-02-01T08:53:43.382Z,61.25
2023-02-01T08:56:12.592Z,63.16
2023-02-01T08:58:41.219Z,62.61
2023-02-01T09:01:13.027Z,60.68
2023-02-01T09:03:40.975Z,59.41
2023-02-01T09:06:12.996Z,59.76
2023-02-01T09:08:41.264Z,61.46
2023-02-01T09:11:14.785Z,63.08
2023-02-01T09:13:42.284Z,62.47
2023-02-01T09:16:09.635Z,61.31
2023-02-01T09:18:41.845Z,60.78
2023-02-01T09:21:18.020Z,60.21
2023-02-01T09:23:49.821Z,59.35
2023-02-01T09:26:19.779Z,60.61
2023-02-01T09:28:50.737Z,62.67
2023-02-01T09:31:18.125Z,63.14
2023-02-01T09:33:46.344Z,61.91
2023-02-01T09:36:13.433Z,60.74
2023-02-01T09:39:24.767Z,60.19
2023-02-01T09:42:35.231Z,59.57
2023-02-01T09:45:40.185Z,61.89
2023-02-01T09:48:21.843Z,63.58
2023-02-01T09:50:56.808Z,62.81
2023-02-01T09:53:52.466Z,61.89
2023-02-01T09:56:27.198Z,61.66
2023-02-01T09:59:35.927Z,60.88
2023-02-01T10:02:05.850Z,61.26
2023-02-01T10:04:34.674Z,61.10
2023-02-01T10:07:14.069Z,60.30
2023-02-01T10:10:03.433Z,60.51
2023-02-01T10:12:50.058Z,60.21
2023-02-01T10:15:49.323Z,60.02
2023-02-01T10:18:40.941Z,60.25
2023-02-01T10:21:26.835Z,60.02
2023-02-01T10:24:18.820Z,60.05
2023-02-01T10:27:00.482Z,60.88
2023-02-01T10:29:36.308Z,63.65
2023-02-01T10:32:13.811Z,63.69
2023-02-01T10:34:41.835Z,63.02
2023-02-01T10:37:35.499Z,62.60
2023-02-01T10:40:25.542Z,61.61
2023-02-01T10:42:57.470Z,61.09
2023-02-01T10:45:28.348Z,60.72
2023-02-01T10:47:58.657Z,60.38
2023-02-01T10:50:58.128Z,60.17
2023-02-01T10:53:33.871Z,60.13
2023-02-01T10:56:16.073Z,59.53
2023-02-01T10:58:48.816Z,60.34
2023-02-01T11:01:42.191Z,62.99
2023-02-01T11:04:17.229Z,63.66
2023-02-01T11:07:11.531Z,63.00
2023-02-01T11:09:42.739Z,61.99
2023-02-01T11:12:33.504Z,61.41
2023-02-01T11:15:24.926Z,61.25
2023-02-01T11:17:56.749Z,61.00
2023-02-01T11:20:41.731Z,60.95
2023-02-01T11:23:18.466Z,61.00
2023-02-01T11:26:00.662Z,60.77
2023-02-01T11:28:34.273Z,60.44
2023-02-01T11:31:10.035Z,60.42
2023-02-01T11:33:43.808Z,60.38
2023-02-01T11:36:21.606Z,60.13
2023-02-01T11:39:13.705Z,60.00
2023-02-01T11:41:43.823Z,59.83
2023-02-01T11:44:30.111Z,59.64
2023-02-01T11:47:26.153Z,59.86
2023-02-01T11:50:17.110Z,62.87
2023-02-01T11:52:51.954Z,63.52
2023-02-01T11:55:22.386Z,62.82
2023-02-01T11:57:55.612Z,62.13
2023-02-01T12:01:12.315Z,61.76
2023-02-01T12:04:16.880Z,61.18
2023-02-01T12:06:57.367Z,61.05
2023-02-01T12:10:03.759Z,60.70
2023-02-01T12:13:07.659Z,60.45
2023-02-01T12:15:56.537Z,60.47
2023-02-01T12:18:42.616Z,60.28
2023-02-01T12:21:42.622Z,59.82
2023-02-01T12:24:38.811Z,59.72
2023-02-01T12:27:31.368Z,59.77
2023-02-01T12:30:13.686Z,59.69
2023-02-01T12:33:07.971Z,59.36
2023-02-01T12:36:00.606Z,61.16
2023-02-01T12:38:37.796Z,63.64
2023-02-01T12:41:29.820Z,63.42
2023-02-01T12:44:23.034Z,62.32
2023-02-01T12:47:07.863Z,61.51
2023-02-01T12:49:43.929Z,60.97
2023-02-01T12:52:24.325Z,60.38
2023-02-01T12:55:01.194Z,60.17
2023-02-01T12:57:34.343Z,59.92
2023-02-01T13:00:39.501Z,59.34
2023-02-01T13:03:23.319Z,61.49
2023-02-01T13:05:56.837Z,63.65
2023-02-01T13:08:40.161Z,62.59
2023-02-01T13:11:15.708Z,61.61
2023-02-01T13:14:07.836Z,60.50
2023-02-01T13:16:41.363Z,59.70
2023-02-01T13:19:19.944Z,60.22
2023-02-01T13:21:52.326Z,62.16
2023-02-01T13:25:11.894Z,63.24
2023-02-01T13:27:39.608Z,62.17
2023-02-01T13:30:18.799Z,61.21
2023-02-01T13:33:54.736Z,60.53
2023-02-01T13:36:15.842Z,59.99
2023-02-01T13:39:01.099Z,59.55
2023-02-01T13:41:31.787Z,61.42
2023-02-01T13:44:10.753Z,63.57
2023-02-01T13:46:44.351Z,62.67
2023-02-01T13:49:31.936Z,61.14
2023-02-01T13:52:00.143Z,59.93
2023-02-01T13:54:37.499Z,59.68
2023-02-01T13:57:14.144Z,61.29
2023-02-01T13:59:41.164Z,62.77
2023-02-01T14:02:39.295Z,62.44
2023-02-01T14:05:25.479Z,61.28
2023-02-01T14:08:05.028Z,60.28
2023-02-01T14:10:58.757Z,59.33
2023-02-01T14:13:39.510Z,60.55
2023-02-01T14:16:07.538Z,62.78
2023-02-01T14:18:46.232Z,62.85
2023-02-01T14:21:44.946Z,61.51
2023-02-01T14:24:12.138Z,60.23
2023-02-01T14:26:46.581Z,60.12
2023-02-01T14:29:25.738Z,61.91
2023-02-01T14:31:58.460Z,62.94
2023-02-01T14:34:50.666Z,61.50
2023-02-01T14:37:18.356Z,60.58
2023-02-01T14:39:45.423Z,59.68
2023-02-01T14:42:30.476Z,59.94
2023-02-01T14:45:22.519Z,61.66
2023-02-01T14:47:56.841Z,63.26
2023-02-01T14:50:33.357Z,62.12
2023-02-01T14:53:13.097Z,60.81
2023-02-01T14:56:10.119Z,60.08
2023-02-01T14:59:04.708Z,59.37
2023-02-01T15:01:35.989Z,61.27
2023-02-01T15:04:22.438Z,63.42
2023-02-01T15:07:07.836Z,63.00
2023-02-01T15:09:39.454Z,61.66
2023-02-01T15:12:12.779Z,60.85
2023-02-01T15:14:49.669Z,60.17
2023-02-01T15:17:27.583Z,59.72
2023-02-01T15:20:00.837Z,59.35
2023-02-01T15:22:30.429Z,60.43
2023-02-01T15:24:59.649Z,62.58
2023-02-01T15:27:28.961Z,63.33
2023-02-01T15:30:08.814Z,62.25
2023-02-01T15:32:39.247Z,60.77
2023-02-01T15:35:26.728Z,59.97
2023-02-01T15:38:14.405Z,59.47
2023-02-01T15:41:20.401Z,60.28
2023-02-01T15:44:16.987Z,63.29
2023-02-01T15:46:50.313Z,62.93
2023-02-01T15:49:27.029Z,61.43
2023-02-01T15:51:55.856Z,60.34
2023-02-01T15:54:33.136Z,59.78
2023-02-01T15:57:02.849Z,59.21
2023-02-01T15:59:44.624Z,60.90
2023-02-01T16:02:35.593Z,63.57
2023-02-01T16:05:04.877Z,62.82
2023-02-01T16:07:34.611Z,61.61
2023-02-01T16:10:20.570Z,60.56
2023-02-01T16:12:48.740Z,59.75
2023-02-01T16:15:16.029Z,59.80
2023-02-01T16:17:44.322Z,61.96
2023-02-01T16:20:12.199Z,64.26
2023-02-01T16:22:39.304Z,64.10
2023-02-01T16:25:07.568Z,63.06
2023-02-01T16:27:34.767Z,61.98
2023-02-01T16:30:01.953Z,61.70
2023-02-01T16:32:31.005Z,60.80
2023-02-01T16:34:58.441Z,60.75
2023-02-01T16:37:28.500Z,60.62
2023-02-01T16:39:55.729Z,60.35
2023-02-01T16:42:22.880Z,60.02
2023-02-01T16:44:49.973Z,60.26
2023-02-01T16:47:22.488Z,59.69
2023-02-01T16:49:50.898Z,59.65
2023-02-01T16:52:21.512Z,59.40
2023-02-01T16:54:49.559Z,59.80
2023-02-01T16:57:18.749Z,61.76
2023-02-01T16:59:46.118Z,63.54
2023-02-01T17:02:15.851Z,63.42
2023-02-01T17:04:43.687Z,62.38
2023-02-01T17:07:19.213Z,61.45
2023-02-01T17:09:47.547Z,60.83
2023-02-01T17:12:25.120Z,60.03
2023-02-01T17:14:52.731Z,59.76
2023-02-01T17:17:32.835Z,59.24
2023-02-01T17:20:06.422Z,60.02
2023-02-01T17:22:34.406Z,62.48
2023-02-01T17:25:01.648Z,63.67
2023-02-01T17:27:47.158Z,62.98
2023-02-01T17:30:16.286Z,61.95
2023-02-01T17:32:44.265Z,61.16
2023-02-01T17:35:24.232Z,60.34
2023-02-01T17:37:52.704Z,60.07
2023-02-01T17:40:20.036Z,59.41
2023-02-01T17:42:49.616Z,60.70
2023-02-01T17:45:55.811Z,63.11
2023-02-01T17:48:23.755Z,63.67
2023-02-01T17:51:03.314Z,62.94
2023-02-01T17:53:34.772Z,61.75
2023-02-01T17:56:04.215Z,61.00
2023-02-01T17:58:40.830Z,60.80
2023-02-01T18:01:17.429Z,60.45
2023-02-01T18:08:47.980Z,60.90
2023-02-01T18:11:21.900Z,63.45
2023-02-01T18:13:53.063Z,63.57
2023-02-01T18:16:28.913Z,62.04
2023-02-01T18:37:30.047Z,63.85
2023-02-01T18:39:58.298Z,62.26
2023-02-01T18:42:29.889Z,61.83
2023-02-01T18:55:26.960Z,62.63
2023-02-01T19:21:55.908Z,60.11
2023-02-01T19:25:02.013Z,60.89
2023-02-01T19:27:29.878Z,63.23
2023-02-01T19:29:57.508Z,63.60
2023-02-01T19:32:26.084Z,62.98
2023-02-01T19:34:54.858Z,62.23
2023-02-01T19:37:22.234Z,61.79
2023-02-01T19:39:49.397Z,61.22
2023-02-01T19:42:16.772Z,60.66
2023-02-01T19:44:44.221Z,60.27
2023-02-01T19:47:11.535Z,59.88
2023-02-01T19:49:38.710Z,59.88
2023-02-01T19:52:06.014Z,60.63
2023-02-01T19:54:33.219Z,63.21
2023-02-01T19:57:01.344Z,64.98
2023-02-01T19:59:28.735Z,64.13
2023-02-01T20:01:55.508Z,63.17
2023-02-01T20:04:24.455Z,62.57
2023-02-01T20:06:53.671Z,61.90
2023-02-01T20:09:25.814Z,61.43
2023-02-01T20:11:53.748Z,61.23
2023-02-01T20:14:23.638Z,60.95
2023-02-01T20:16:51.112Z,60.23
2023-02-01T20:19:19.002Z,60.15
2023-02-01T20:21:46.304Z,60.13
2023-02-01T20:24:19.287Z,60.06
2023-02-01T20:26:48.647Z,59.60
2023-02-01T20:29:18.505Z,59.57
2023-02-01T20:31:46.452Z,62.03
2023-02-01T20:34:13.972Z,64.17
2023-02-01T20:36:42.039Z,63.34
2023-02-01T20:39:12.931Z,62.48
2023-02-01T20:41:40.585Z,62.02
2023-02-01T20:44:07.707Z,61.13
2023-02-01T20:46:34.875Z,60.80
2023-02-01T20:49:02.154Z,60.58
2023-02-01T20:51:29.318Z,60.13
2023-02-01T20:53:56.758Z,60.07
2023-02-01T20:56:24.040Z,59.77
2023-02-01T20:58:51.266Z,59.51
2023-02-01T21:01:18.447Z,60.22
2023-02-01T21:03:45.710Z,63.11
2023-02-01T21:06:13.075Z,63.76
2023-02-01T21:08:41.041Z,63.08
2023-02-01T21:11:11.499Z,62.02
2023-02-01T21:13:43.625Z,61.33
2023-02-01T21:16:13.581Z,60.78
2023-02-01T21:18:40.796Z,60.28
2023-02-01T21:21:10.804Z,60.05
2023-02-01T21:23:48.959Z,59.77
2023-02-01T21:26:22.099Z,59.57
2023-02-01T21:28:51.230Z,61.08
2023-02-01T21:31:20.576Z,63.82
2023-02-01T21:33:49.146Z,63.91
2023-02-01T21:36:20.117Z,63.23
2023-02-01T21:38:51.901Z,62.53
2023-02-01T21:41:44.047Z,62.28
2023-02-01T21:44:14.769Z,61.57
2023-02-01T21:46:43.753Z,61.10
2023-02-01T21:49:11.390Z,60.75
2023-02-01T21:51:38.881Z,60.85
2023-02-01T21:54:08.725Z,60.64
2023-02-01T21:56:40.086Z,60.43
2023-02-01T21:59:07.341Z,60.34
2023-02-01T22:01:34.516Z,60.00
2023-02-01T22:04:01.843Z,59.81
2023-02-01T22:06:34.552Z,59.66
2023-02-01T22:09:01.883Z,59.43
2023-02-01T22:11:29.234Z,61.03
2023-02-01T22:13:56.789Z,63.62
2023-02-01T22:16:24.461Z,63.69
2023-02-01T22:18:52.341Z,62.88
2023-02-01T22:21:21.233Z,62.07
2023-02-01T22:23:57.094Z,61.37
2023-02-01T22:26:25.771Z,60.96
2023-02-01T22:28:53.289Z,60.72
2023-02-01T22:31:20.991Z,60.06
2023-02-01T22:33:49.778Z,59.63
2023-02-01T22:36:17.788Z,59.56
2023-02-01T22:38:46.462Z,59.37
2023-02-01T22:41:13.911Z,61.02
2023-02-01T22:43:42.158Z,63.78
2023-02-01T22:46:16.813Z,63.87
2023-02-01T22:48:45.817Z,63.03
2023-02-01T22:51:35.918Z,62.19
2023-02-01T22:54:03.351Z,61.46
2023-02-01T22:56:33.564Z,60.93
2023-02-01T22:59:06.119Z,60.88
2023-02-01T23:01:34.483Z,60.52
2023-02-01T23:04:05.094Z,60.41
2023-02-01T23:06:33.788Z,59.95
2023-02-01T23:09:04.757Z,59.65
2023-02-01T23:11:31.903Z,59.58
2023-02-01T23:13:59.087Z,59.55
2023-02-01T23:16:26.267Z,59.22
2023-02-01T23:18:53.462Z,61.28
2023-02-01T23:21:22.437Z,63.85
2023-02-01T23:23:54.731Z,63.58
2023-02-01T23:26:24.203Z,62.55
2023-02-01T23:28:54.650Z,61.60
2023-02-01T23:31:24.325Z,60.90
2023-02-01T23:33:56.117Z,60.10
2023-02-01T23:36:25.107Z,59.79
2023-02-01T23:38:52.756Z,59.26
2023-02-01T23:41:21.656Z,60.78
2023-02-01T23:43:59.556Z,63.25
2023-02-01T23:46:36.000Z,63.93
2023-02-01T23:49:08.812Z,62.99
2023-02-01T23:51:36.723Z,62.05
2023-02-01T23:54:05.774Z,61.42
2023-02-01T23:56:36.346Z,61.09
2023-02-01T23:59:06.775Z,60.50
